Weather reports worldwide

Advertisment
Caserta, Italy (16288): temperature & dewpoint: 29.03.2020 00:00:00 - 04.04.2020 00:00:00 (CEST)Caserta, Italy (16288): wind speed: 29.03.2020 00:00:00 - 04.04.2020 00:00:00 (CEST)Caserta, Italy (16288): wind direction: 29.03.2020 00:00:00 - 04.04.2020 00:00:00 (CEST)Caserta, Italy (16288): reduced air pressure: 29.03.2020 00:00:00 - 04.04.2020 00:00:00 (CEST)Caserta, Italy (16288): precipitation: 29.03.2020 00:00:00 - 04.04.2020 00:00:00 (CEST)
Date & Time tt [°C] td [°C] ff [km/h] ff [kn] dd ppp [hPa] rr [mm]
04.04.2020 00:00:00 - - - - - - -
03.04.2020 23:00:00 10,4 0,3 8 4 E 1013,8 -
03.04.2020 22:00:00 11,2 0,8 4 2 ENE 1013,3 -
03.04.2020 21:00:00 12,0 0,9 8 4 E 1012,9 -
03.04.2020 20:00:00 12,9 0,8 9 5 ESE 1012,3 -
03.04.2020 19:00:00 14,5 1,0 13 7 E 1011,6 -
03.04.2020 18:00:00 15,9 1,1 11 6 E 1010,9 -
03.04.2020 17:00:00 16,9 0,8 13 7 ENE 1010,9 -
03.04.2020 16:00:00 17,4 2,5 11 6 W 1010,8 -
03.04.2020 15:00:00 17,5 1,4 9 5 E 1011,0 -
03.04.2020 14:00:00 17,5 2,2 5 3 E 1011,6 0,0
03.04.2020 13:00:00 15,1 1,1 9 5 ESE 1012,1 -
03.04.2020 12:00:00 14,7 1,5 8 4 E 1012,6 -
03.04.2020 11:00:00 13,3 4,1 8 4 ESE 1013,1 -
03.04.2020 10:00:00 9,2 2,2 5 3 NNE 1013,4 -
03.04.2020 09:00:00 8,2 1,0 8 4 NE 1012,9 -
03.04.2020 08:00:00 7,8 0,9 8 4 NE 1012,6 0,0
03.04.2020 07:00:00 7,7 0,8 5 3 NE 1012,2 -
03.04.2020 06:00:00 7,9 0,8 4 2 ENE 1012,1 -
03.04.2020 05:00:00 7,8 0,9 2 1 NNE 1012,3 -
03.04.2020 04:00:00 7,2 1,0 2 1 ENE 1012,7 -
03.04.2020 03:00:00 7,5 0,8 2 1 NNE 1013,2 -
03.04.2020 02:00:00 7,4 1,0 5 3 E 1013,6 0,0
03.04.2020 01:00:00 6,8 1,8 2 1 NE 1014,0 -
03.04.2020 00:00:00 7,2 2,4 0 0 N 1014,4 -
02.04.2020 23:00:00 7,6 2,6 0 0 N 1014,2 -
02.04.2020 22:00:00 8,1 2,3 0 0 N 1014,1 -
02.04.2020 21:00:00 9,1 2,1 2 1 NE 1013,6 -
02.04.2020 20:00:00 10,4 2,2 4 2 W 1013,0 -
02.04.2020 19:00:00 11,6 2,0 9 5 W 1013,0 -
02.04.2020 18:00:00 12,8 0,7 9 5 NW 1013,1 -
02.04.2020 17:00:00 13,8 1,3 13 7 NNW 1013,2 -
02.04.2020 16:00:00 14,6 -0,4 5 3 W 1013,7 -
02.04.2020 15:00:00 14,3 -0,7 8 4 WNW 1014,1 -
02.04.2020 14:00:00 13,7 -1,2 8 4 W 1015,1 -
02.04.2020 13:00:00 12,6 -1,5 5 3 NNW 1015,6 -
02.04.2020 12:00:00 12,1 -0,9 5 3 ENE 1016,0 -
02.04.2020 11:00:00 11,0 -1,5 5 3 E 1016,4 -
02.04.2020 10:00:00 9,1 -2,3 5 3 ESE 1016,7 -
02.04.2020 09:00:00 6,7 -2,6 5 3 NE 1016,9 -
02.04.2020 08:00:00 4,2 -3,9 5 3 NE 1016,9 -
02.04.2020 07:00:00 3,4 -4,4 4 2 WNW 1016,9 -
02.04.2020 06:00:00 4,7 -4,4 4 2 NNE 1016,5 -
02.04.2020 05:00:00 5,3 -4,1 5 3 N 1016,9 -
02.04.2020 04:00:00 5,3 -3,9 2 1 S 1017,0 -
02.04.2020 03:00:00 5,2 -4,5 0 0 N 1017,6 -
02.04.2020 02:00:00 5,1 -5,7 4 2 ENE 1017,9 -
02.04.2020 01:00:00 5,4 -6,0 2 1 ENE 1017,7 -
02.04.2020 00:00:00 5,5 -5,9 2 1 E 1017,7 -
01.04.2020 23:00:00 6,5 -6,3 5 3 E 1018,2 -
01.04.2020 22:00:00 5,9 -5,9 2 1 WSW 1018,3 -
01.04.2020 21:00:00 7,4 -6,1 4 2 NNE 1017,5 -
01.04.2020 20:00:00 8,5 -6,6 11 6 E 1016,5 -
01.04.2020 19:00:00 9,9 -7,9 8 4 SE 1016,5 -
01.04.2020 18:00:00 10,5 -7,4 9 5 ENE 1016,5 -
01.04.2020 17:00:00 11,3 -6,2 9 5 NNW 1016,7 -
01.04.2020 16:00:00 11,6 -6,0 9 5 N 1016,6 -
01.04.2020 15:00:00 11,6 -6,0 11 6 N 1016,5 -
01.04.2020 14:00:00 11,3 -6,2 9 5 NNE 1016,6 -
01.04.2020 13:00:00 10,4 -6,1 13 7 NE 1016,8 -
01.04.2020 12:00:00 9,9 -5,8 13 7 NNE - -
01.04.2020 11:00:00 9,1 -5,3 9 5 WNW 1016,7 -
01.04.2020 10:00:00 8,4 -3,3 11 6 ENE 1016,6 -
01.04.2020 09:00:00 7,0 -2,6 8 4 ENE 1016,3 -
01.04.2020 08:00:00 5,5 -2,4 8 4 E 1016,4 -
01.04.2020 07:00:00 4,9 -0,8 4 2 E 1016,0 -
01.04.2020 06:00:00 4,6 -0,1 5 3 S 1015,8 -
01.04.2020 05:00:00 4,3 0,4 4 2 NNE 1016,0 -
01.04.2020 04:00:00 4,0 1,0 8 4 NE 1016,4 -
01.04.2020 03:00:00 3,6 1,4 8 4 W 1016,5 -
01.04.2020 02:00:00 3,3 1,2 13 7 WNW 1017,0 -
01.04.2020 01:00:00 4,2 1,5 11 6 ENE 1017,5 -
01.04.2020 00:00:00 5,6 2,4 11 6 ENE 1017,4 -
31.03.2020 23:00:00 7,0 3,9 5 3 NE 1016,8 -
31.03.2020 22:00:00 8,4 3,0 9 5 ENE 1016,9 -
31.03.2020 21:00:00 9,5 2,7 5 3 W 1016,6 -
31.03.2020 20:00:00 9,8 3,7 9 5 N 1016,2 -
31.03.2020 19:00:00 11,0 5,5 9 5 ENE 1016,1 -
31.03.2020 18:00:00 11,9 6,1 8 4 ENE 1015,8 -
31.03.2020 17:00:00 12,5 7,9 8 4 ENE 1015,4 -
31.03.2020 16:00:00 12,6 8,0 4 2 ENE 1015,7 -
31.03.2020 15:00:00 15,9 6,8 15 8 S 1015,2 -
31.03.2020 14:00:00 17,2 7,5 8 4 E 1015,3 0,0
31.03.2020 13:00:00 15,4 6,1 9 5 ENE 1015,8 -
31.03.2020 12:00:00 16,6 7,5 9 5 E 1016,1 -
31.03.2020 11:00:00 15,8 7,0 11 6 E 1016,3 -
31.03.2020 10:00:00 14,4 8,3 5 3 E 1016,2 -
31.03.2020 09:00:00 11,4 8,8 4 2 NNE 1015,8 -
31.03.2020 08:00:00 9,1 7,5 2 1 NE 1015,4 0,0
31.03.2020 07:00:00 8,3 6,1 2 1 NNE 1015,1 -
31.03.2020 06:00:00 8,8 6,4 2 1 NE 1014,8 -
31.03.2020 05:00:00 9,6 6,5 2 1 N 1014,7 -
31.03.2020 04:00:00 10,5 7,3 2 1 NNE 1014,6 -
31.03.2020 03:00:00 11,5 9,2 2 1 NNE 1014,5 -
31.03.2020 02:00:00 12,0 9,7 2 1 ENE 1014,4 0,0
31.03.2020 01:00:00 12,5 10,0 0 0 N 1014,5 -
31.03.2020 00:00:00 12,8 9,8 0 0 N 1014,5 -
30.03.2020 23:00:00 13,4 10,2 4 2 S 1014,2 -
30.03.2020 22:00:00 13,6 10,4 4 2 S 1013,9 -
30.03.2020 21:00:00 13,6 9,0 0 0 N 1013,7 -
30.03.2020 20:00:00 14,2 10,0 4 2 W 1013,0 0,0
30.03.2020 19:00:00 14,6 9,4 4 2 WNW 1012,7 -
30.03.2020 18:00:00 15,9 9,3 5 3 W 1012,2 -
30.03.2020 17:00:00 17,1 9,2 11 6 NE 1011,8 -
30.03.2020 16:00:00 17,7 8,7 13 7 WNW 1011,8 -
30.03.2020 15:00:00 18,2 9,2 13 7 WNW 1012,0 -
30.03.2020 14:00:00 18,6 8,2 5 3 W 1012,2 0,0
30.03.2020 13:00:00 17,1 9,7 5 3 W 1012,9 -
30.03.2020 12:00:00 15,6 10,5 4 2 NW 1013,2 -
30.03.2020 11:00:00 14,0 9,2 2 1 WNW 1013,3 -
30.03.2020 10:00:00 12,7 9,3 4 2 E 1013,0 -
30.03.2020 09:00:00 10,6 9,2 4 2 NE 1012,6 -
30.03.2020 08:00:00 8,8 8,5 5 3 NE 1012,7 -
30.03.2020 07:00:00 8,5 7,7 4 2 NE 1012,6 -
30.03.2020 06:00:00 8,4 7,8 4 2 NNE 1012,7 -
30.03.2020 05:00:00 8,6 7,7 2 1 NE 1012,8 -
30.03.2020 04:00:00 8,9 7,7 2 1 N 1012,9 -
30.03.2020 03:00:00 9,8 8,5 2 1 NE 1013,1 -
30.03.2020 02:00:00 10,6 9,0 2 1 NE 1013,3 -
30.03.2020 01:00:00 11,6 9,8 0 0 N 1013,5 -
30.03.2020 00:00:00 12,1 9,6 0 0 N 1014,0 -
29.03.2020 23:00:00 11,8 8,6 0 0 N 1014,4 -
29.03.2020 22:00:00 12,4 8,8 2 1 WSW 1014,5 -
29.03.2020 21:00:00 12,7 8,5 2 1 W 1014,2 -
29.03.2020 20:00:00 13,5 8,3 4 2 W 1013,4 0,0
29.03.2020 19:00:00 14,6 6,9 8 4 NW 1012,8 -
29.03.2020 18:00:00 15,7 7,6 9 5 S 1012,8 -
29.03.2020 17:00:00 16,4 8,6 11 6 NW 1012,7 -
29.03.2020 16:00:00 16,8 8,7 8 4 W 1012,9 -
29.03.2020 15:00:00 16,0 8,7 8 4 W 1013,4 -
29.03.2020 14:00:00 16,3 7,2 4 2 NW 1013,9 0,0
29.03.2020 13:00:00 16,5 8,1 5 3 WNW 1014,4 -
29.03.2020 12:00:00 15,9 8,3 5 3 W 1014,9 -
29.03.2020 11:00:00 15,3 8,7 4 2 SW 1015,3 -
29.03.2020 10:00:00 13,5 9,1 2 1 WSW 1015,3 -
29.03.2020 09:00:00 11,2 8,4 4 2 NE 1015,2 -
29.03.2020 08:00:00 8,6 6,9 2 1 NNE 1015,3 0,0
29.03.2020 07:00:00 8,6 7,0 2 1 SSE 1015,1 -
29.03.2020 06:00:00 8,5 7,3 4 2 NE 1015,2 -
29.03.2020 05:00:00 7,9 6,0 0 0 N 1015,5 -
29.03.2020 04:00:00 8,8 7,6 4 2 NE 1015,6 -
29.03.2020 03:00:00 8,5 7,4 0 0 N 1015,9 -
29.03.2020 02:00:00 7,8 5,7 0 0 N 1016,3 0,0
29.03.2020 01:00:00 8,4 6,2 2 1 ENE 1016,0 -
29.03.2020 00:00:00 - - - - - - -

tt = temperature
td = dewpoint
ff = wind speed
dd = wind direction
ppp = reduced air pressure
rr = precipitation

Next stations